Alba, Illinois
Current Conditions -  °F | °C
As of 12:52 PM on Tuesday 27 Jan 2015 (Local Time) from KMLI Reporting Station
Overcast Overcast  
Wind Chill: 24°   Ceiling: 1700
Heat Index: 30°   Visibility: 7mi
Dew Point: 22°   Wind: 6mph
Humidity: 72%   Direction: 10°N
Pressure: 30.19"   Gusts: NA
Location:  41.4097°N, 90.0293°W
Report Text: KMLI 271852Z 01005KT 7SM OVC017 M01/M06 A3019 RMK AO2 SLP230 T10111056
Loading
Personal Weather Stations






























Interactive Weather Map New forecast layout! Learn more

10-Day Weather Forecast

Advertisements
Track Severe Weather on mobile